• Join FlightAware (Why Join?)
  • Login
  • US Flag 
10:52PM EDT


 

Airport Tracker/Info


-or-


 

Live Flight TrackerFlight Track Log ✈ N400PU ✈ 25-Sep-2013 ✈ KAOH - KLAF

Flight Track Log - Related Links

Times and Time Zones

All times are in EDT time to prevent confusion due to time zone crossing. See the N400PU flight status page for this flight to view local times or setup timezone preferences in your user account.

Time Position Orientation Groundspeed Altitude Reporting Facility
EDT Latitude Longitude Course Direction KTS MPH feet Rate Location/Type
09:23PM 40.7111 -83.9875 263° West 185 213 2,500  Level Indianapolis Center
09:24PM 40.6653 -83.9456 145° Southeast 243 280 5,000 2,520 Climbing Indianapolis Center
09:25PM 40.7022 -84.0541 256° West  Level FlightAware Approximate
09:25PM 40.6283 -84.0256 239° Southwest 265 305 7,800  Level Indianapolis Center
09:26PM 40.6823 -84.1553 255° West  Level FlightAware Approximate
09:26PM 40.6217 -84.1261 265° West 277 319 10,000  Level Indianapolis Center
09:27PM 40.6798 -84.2512 255° West  Level FlightAware Approximate
09:27PM 40.6133 -84.2469 265° West 328 377 10,000  Level Indianapolis Center
09:28PM 40.6649 -84.3534 263° West  Level FlightAware Approximate
09:28PM 40.6061 -84.3692 266° West 338 389 10,000  Level Indianapolis Center
09:29PM 40.5972 -84.4908 265° West 336 387 10,000  Level Indianapolis Center
09:30PM 40.5897 -84.6169 266° West 345 397 10,000  Level Indianapolis Center
09:31PM 40.5800 -84.7433 264° West 348 400 10,000  Level Indianapolis Center
09:32PM 40.5725 -84.8658 265° West 343 395 10,000  Level Indianapolis Center
09:33PM 40.5636 -84.9931 265° West 338 389 10,000  Level Indianapolis Center
09:34PM 40.5525 -85.1647 265° West 339 390 10,000  Level Indianapolis Center
09:35PM 40.5461 -85.2378 263° West 341 392 10,000  Level Chicago Center
09:36PM 40.5372 -85.3636 265° West 346 398 10,000  Level Chicago Center
09:37PM 40.5272 -85.4881 264° West 345 397 10,000 -60 Level Chicago Center
09:38PM 40.5172 -85.6197 264° West 348 400 9,900 -240 Descending Chicago Center
09:38PM 40.5175 -85.6400 271° West 350 403 9,800 -720 Descending Chicago Center
09:39PM 40.5097 -85.7342 264° West 316 364 9,200 -780 Descending Chicago Center
09:39PM 40.5083 -85.7556 265° West 325 374 9,000 -1,020 Descending Chicago Center
09:40PM 40.5003 -85.8458 263° West 285 328 8,200 -900 Descending Chicago Center
09:40PM 40.5000 -85.8592 268° West 294 338 8,100 -720 Descending Chicago Center
09:41PM 40.4931 -85.9467 264° West 290 334 7,500 -780 Descending Chicago Center
09:41PM 40.4919 -85.9656 266° West 293 337 7,300 -900 Descending Chicago Center
09:42PM 40.4836 -86.0525 263° West 279 321 6,600 -780 Descending Chicago Center
09:42PM 40.4847 -86.0658 276° West 285 328 6,500 -840 Descending Chicago Center
09:43PM 40.4764 -86.1506 263° West 275 316 5,800 -900 Descending Chicago Center
09:43PM 40.4753 -86.1839 268° West 276 318 5,600 -840 Descending Chicago Center
09:44PM 40.4686 -86.2539 263° West 269 310 5,000 -780 Descending Chicago Center
09:44PM 40.4672 -86.2811 266° West 272 313 4,800 -720 Descending Chicago Center
09:45PM 40.4611 -86.3547 264° West 269 310 4,300 -600 Descending Chicago Center
09:45PM 40.4589 -86.3789 263° West 271 312 4,200 -600 Descending Chicago Center
09:46PM 40.4517 -86.4497 262° West 271 312 3,700 -720 Descending Chicago Center
09:46PM 40.4522 -86.4747 272° West 269 310 3,500 -720 Descending Chicago Center
09:47PM 40.4442 -86.5475 262° West 258 297 3,000 -540 Descending Chicago Center
09:47PM 40.4444 -86.5689 271° West 265 305 3,000  Level Chicago Center
09:48PM 40.4367 -86.6400 262° West 264 304 3,000  Level Chicago Center
09:48PM 40.4361 -86.6628 268° West 262 302 3,000 -120 Level Chicago Center
09:49PM 40.4278 -86.7711 264° West 262 302 2,900 -120 Descending Chicago Center